Messwerte Cut Bank

Temperatur

Temperatur
°C
1573660800 9.00 9.00 3
1573664400 10.00 10.00 5
1573668000 11.00 11.00 7
1573671600 12.00 12.00 8
1573675200 13.00 13.00 9
1573678800 14.00 14.00 9
1573682400 15.00 15.00 8
1573686000 16.00 16.00 6
1573689600 17.00 17.00 3
1573693200 18.00 18.00 2
1573696800 19.00 19.00 2
1573700400 20.00 20.00 1
1573704000 21.00 21.00 -1
1573707600 22.00 22.00 -1
1573711200 23.00 23.00 -1
1573714800 0.00 0.00 -1
1573718400 1.00 1.00 -2
1573722000 2.00 2.00 -1
1573725600 3.00 3.00 -3
1573729200 4.00 4.00 -2
1573732800 5.00 5.00 -3
1573736400 6.00 6.00 -3
1573740000 7.00 7.00 -1
1573743600 8.00 8.00 -2

Aktuellste Messwerte

Wettercharakter
Wetter: sonnig
Temperatur
-1 °C
Feuchtigkeit
80 %
Wind
0 km/h, -
Luftdruck
1019 hPa
Messzeit: 14. November 2019, 9.00Datenquelle: METAR

Weitere Messstationen in der Nähe

Messstation Temperatur Entfernung
Del Bonita Agdm - 59 km
Milk River - 63 km
Cardston - 93 km
Raymond Agdm - 99 km
Wrentham Agdm - 101 km
Foremost Agdm - 117 km
Blood Tribe Agdm - 117 km

Wind

Windrichtung Böen Mittelwind
° km/h km/h
1573660800 9.00 8.00 - 9.00 260° 30
1573664400 10.00 9.00 - 10.00 270° 30
1573668000 11.00 10.00 - 11.00 260° 30
1573671600 12.00 11.00 - 12.00 260° 30
1573675200 13.00 12.00 - 13.00 280° 30
1573678800 14.00 13.00 - 14.00 270° 30
1573682400 15.00 14.00 - 15.00 250° 25
1573686000 16.00 15.00 - 16.00 250° 70 30
1573689600 17.00 16.00 - 17.00 260° 45 30
1573693200 18.00 17.00 - 18.00
1573696800 19.00 18.00 - 19.00 260° 60 30
1573700400 20.00 19.00 - 20.00 280° 55 25
1573704000 21.00 20.00 - 21.00
1573707600 22.00 21.00 - 22.00 10
1573711200 23.00 22.00 - 23.00
1573714800 0.00 23.00 - 0.00
1573718400 1.00 0.00 - 1.00
1573722000 2.00 1.00 - 2.00
1573725600 3.00 2.00 - 3.00
1573729200 4.00 3.00 - 4.00
1573732800 5.00 4.00 - 5.00
1573736400 6.00 5.00 - 6.00
1573740000 7.00 6.00 - 7.00
1573743600 8.00 7.00 - 8.00 260° 10

Ihre Wetterstation

Fehlt Ihre Wetterstation auf unserem Portal?

Schreiben Sie an network@meteonews.ch

Klima

Wann ist es am wärmsten? Wann regnet es am wenigsten? Unsere Klimadaten geben Auskunft.